createdAt,value
2023-04-29T00:02:04.333Z,14.40
2023-04-29T00:05:07.747Z,15.30
2023-04-29T00:08:09.675Z,17.90
2023-04-29T00:14:13.545Z,17.20
2023-04-29T00:17:15.282Z,16.80
2023-04-29T00:20:17.045Z,17.40
2023-04-29T00:23:18.814Z,19.00
2023-04-29T00:29:22.158Z,15.50
2023-04-29T00:32:24.523Z,19.20
2023-04-29T00:35:26.165Z,19.50
2023-04-29T00:38:27.909Z,16.60
2023-04-29T00:44:31.755Z,15.70
2023-04-29T00:50:35.600Z,15.50
2023-04-29T00:53:38.092Z,14.10
2023-04-29T00:56:40.435Z,15.40
2023-04-29T00:59:42.206Z,14.20
2023-04-29T01:05:47.655Z,14.60
2023-04-29T01:09:21.889Z,15.70
2023-04-29T01:12:33.836Z,16.40
2023-04-29T01:16:11.847Z,18.20
2023-04-29T01:19:29.752Z,16.30
2023-04-29T01:22:31.457Z,16.80
2023-04-29T01:25:33.267Z,15.60
2023-04-29T01:28:49.402Z,15.10
2023-04-29T01:32:26.864Z,14.90
2023-04-29T01:35:53.499Z,14.30
2023-04-29T01:39:16.986Z,15.00
2023-04-29T01:42:24.790Z,14.40
2023-04-29T01:45:26.630Z,14.90
2023-04-29T01:48:28.358Z,14.70
2023-04-29T01:51:30.247Z,14.90
2023-04-29T01:54:32.152Z,16.10
2023-04-29T01:57:33.740Z,16.20
2023-04-29T02:03:39.350Z,14.10
2023-04-29T02:06:41.253Z,14.70
2023-04-29T02:12:44.516Z,14.40
2023-04-29T02:18:47.734Z,14.80
2023-04-29T02:21:49.319Z,15.50
2023-04-29T02:24:50.958Z,15.40
2023-04-29T02:30:54.107Z,14.30
2023-04-29T02:33:55.919Z,14.50
2023-04-29T02:39:59.106Z,13.40
2023-04-29T02:43:00.997Z,14.40
2023-04-29T02:46:02.761Z,13.90
2023-04-29T02:49:04.531Z,14.70
2023-04-29T02:55:08.282Z,13.40
2023-04-29T02:58:10.450Z,13.60
2023-04-29T03:01:12.162Z,13.70
2023-04-29T03:07:15.627Z,13.80
2023-04-29T03:13:18.789Z,14.40
2023-04-29T03:19:22.468Z,17.20
2023-04-29T03:22:24.174Z,16.90
2023-04-29T03:25:25.891Z,18.20
2023-04-29T03:31:29.185Z,16.60
2023-04-29T03:34:31.087Z,16.80
2023-04-29T03:40:34.367Z,15.40
2023-04-29T03:43:36.195Z,15.60
2023-04-29T03:46:37.960Z,15.70
2023-04-29T03:49:39.709Z,15.90
2023-04-29T03:55:43.025Z,15.90
2023-04-29T04:01:46.237Z,15.40
2023-04-29T04:10:51.452Z,15.10
2023-04-29T04:16:54.678Z,16.10
2023-04-29T04:22:57.881Z,14.80
2023-04-29T04:29:01.106Z,15.40
2023-04-29T04:32:02.879Z,16.10
2023-04-29T04:35:05.213Z,15.20
2023-04-29T04:38:06.876Z,16.90
2023-04-29T04:41:08.582Z,16.30
2023-04-29T04:44:11.023Z,17.30
2023-04-29T04:47:12.674Z,16.20
2023-04-29T04:53:15.825Z,13.40
2023-04-29T04:56:17.639Z,14.70
2023-04-29T04:59:19.212Z,13.50
2023-04-29T05:05:22.516Z,14.30
2023-04-29T05:08:24.799Z,14.50
2023-04-29T05:11:26.530Z,14.90
2023-04-29T05:14:28.212Z,14.30
2023-04-29T05:17:30.097Z,14.60
2023-04-29T05:20:31.704Z,14.10
2023-04-29T05:26:34.831Z,15.70
2023-04-29T05:32:38.110Z,13.30
2023-04-29T05:35:39.832Z,12.60
2023-04-29T05:38:41.447Z,12.60
2023-04-29T05:44:45.060Z,12.60
2023-04-29T05:47:47.356Z,12.70
2023-04-29T05:50:49.076Z,12.50
2023-04-29T05:53:50.792Z,12.50
2023-04-29T05:56:52.489Z,13.00
2023-04-29T05:59:54.376Z,12.10
2023-04-29T06:02:58.969Z,11.60
2023-04-29T06:06:01.453Z,12.00
2023-04-29T06:09:05.222Z,13.20
2023-04-29T06:12:10.746Z,12.40
2023-04-29T06:15:12.686Z,12.20
2023-04-29T06:18:14.384Z,11.60
2023-04-29T06:21:15.989Z,12.00
2023-04-29T06:24:17.687Z,11.40
2023-04-29T06:27:19.355Z,11.40
2023-04-29T06:30:21.315Z,10.20
2023-04-29T06:33:23.001Z,10.90
2023-04-29T06:36:24.659Z,11.10
2023-04-29T06:39:26.279Z,9.80
2023-04-29T06:42:28.120Z,11.00
2023-04-29T06:45:30.090Z,10.80
2023-04-29T06:48:31.703Z,10.90
2023-04-29T06:51:33.291Z,11.10
2023-04-29T06:54:38.074Z,10.80
2023-04-29T06:57:40.183Z,11.30
2023-04-29T07:00:45.296Z,11.80
2023-04-29T07:03:47.162Z,11.00
2023-04-29T07:06:49.199Z,10.40
2023-04-29T07:09:51.274Z,10.00
2023-04-29T07:12:53.486Z,10.40
2023-04-29T07:15:55.165Z,9.90
2023-04-29T07:18:56.952Z,10.40
2023-04-29T07:21:58.756Z,9.80
2023-04-29T07:25:00.518Z,9.20
2023-04-29T07:28:02.244Z,9.60
2023-04-29T07:31:03.992Z,10.10
2023-04-29T07:34:05.808Z,9.50
2023-04-29T07:37:07.633Z,10.00
2023-04-29T07:40:09.501Z,10.90
2023-04-29T07:43:11.085Z,10.30
2023-04-29T07:46:12.715Z,10.30
2023-04-29T07:49:14.424Z,9.50
2023-04-29T07:52:16.105Z,8.80
2023-04-29T07:55:17.787Z,8.40
2023-04-29T07:58:19.363Z,9.40
2023-04-29T08:01:21.004Z,8.60
2023-04-29T08:04:23.146Z,9.00
2023-04-29T08:07:25.001Z,8.60
2023-04-29T08:10:26.619Z,8.60
2023-04-29T08:13:28.271Z,8.00
2023-04-29T08:16:30.103Z,8.10
2023-04-29T08:19:31.768Z,7.80
2023-04-29T08:22:33.501Z,7.00
2023-04-29T08:25:35.141Z,6.70
2023-04-29T08:28:36.859Z,6.80
2023-04-29T08:31:38.510Z,6.10
2023-04-29T08:34:40.407Z,6.50
2023-04-29T08:37:42.058Z,6.90
2023-04-29T08:40:46.223Z,6.00
2023-04-29T08:43:47.821Z,6.00
2023-04-29T08:46:50.026Z,5.60
2023-04-29T08:49:51.777Z,5.50
2023-04-29T08:52:53.371Z,5.90
2023-04-29T08:55:55.918Z,6.20
2023-04-29T08:58:58.245Z,5.10
2023-04-29T09:02:00.485Z,5.30
2023-04-29T09:05:09.150Z,5.00
2023-04-29T09:08:11.901Z,5.10
2023-04-29T09:11:14.155Z,5.20
2023-04-29T09:14:16.236Z,4.70
2023-04-29T09:17:17.973Z,5.00
2023-04-29T09:20:22.674Z,5.20
2023-04-29T09:23:37.189Z,5.10
2023-04-29T09:26:43.174Z,5.20
2023-04-29T09:30:01.240Z,5.00
2023-04-29T09:33:05.122Z,4.90
2023-04-29T09:36:06.854Z,5.20
2023-04-29T09:39:09.647Z,5.10
2023-04-29T09:42:11.265Z,5.10
2023-04-29T09:45:12.921Z,5.30
2023-04-29T09:48:15.791Z,5.10
2023-04-29T09:51:17.432Z,5.10
2023-04-29T09:54:21.598Z,5.10
2023-04-29T09:57:40.026Z,5.30
2023-04-29T10:00:42.875Z,5.10
2023-04-29T10:03:45.946Z,5.50
2023-04-29T10:06:54.880Z,5.40
2023-04-29T10:09:56.819Z,5.20
2023-04-29T10:13:00.413Z,4.90
2023-04-29T10:16:14.902Z,5.50
2023-04-29T10:19:25.601Z,5.30
2023-04-29T10:25:31.602Z,5.20
2023-04-29T10:28:33.575Z,5.20
2023-04-29T10:31:35.614Z,5.40
2023-04-29T10:34:38.246Z,4.80
2023-04-29T10:37:43.957Z,5.00
2023-04-29T10:40:46.378Z,5.60
2023-04-29T10:43:48.043Z,4.90
2023-04-29T10:46:49.750Z,5.60
2023-04-29T10:50:04.613Z,5.60
2023-04-29T10:53:06.204Z,5.70
2023-04-29T10:56:09.826Z,5.60
2023-04-29T10:59:13.036Z,5.60
2023-04-29T11:02:14.648Z,5.90
2023-04-29T11:05:16.350Z,5.90
2023-04-29T11:08:21.446Z,5.50
2023-04-29T11:11:24.422Z,5.40
2023-04-29T11:14:35.763Z,5.90
2023-04-29T11:17:37.880Z,5.80
2023-04-29T11:21:05.761Z,5.50
2023-04-29T11:24:07.416Z,5.70
2023-04-29T11:27:09.340Z,5.50
2023-04-29T11:30:11.512Z,5.40
2023-04-29T11:33:13.609Z,5.60
2023-04-29T11:36:15.417Z,5.40
2023-04-29T11:39:17.112Z,5.40
2023-04-29T11:42:22.652Z,5.40
2023-04-29T11:45:24.297Z,5.50
2023-04-29T11:48:26.490Z,5.40
2023-04-29T11:51:28.114Z,5.70
2023-04-29T11:54:30.411Z,5.80
2023-04-29T11:57:32.116Z,6.00
2023-04-29T12:00:33.855Z,5.60
2023-04-29T12:03:35.800Z,5.70
2023-04-29T12:06:37.650Z,5.30
2023-04-29T12:09:45.988Z,6.00
2023-04-29T12:12:48.207Z,5.70
2023-04-29T12:15:50.712Z,5.80
2023-04-29T12:18:52.828Z,5.70
2023-04-29T12:21:54.388Z,6.50
2023-04-29T12:24:57.232Z,5.90
2023-04-29T12:28:02.461Z,6.00
2023-04-29T12:31:04.199Z,5.90
2023-04-29T12:34:08.259Z,5.80
2023-04-29T12:37:11.540Z,5.30
2023-04-29T12:40:17.256Z,5.60
2023-04-29T12:43:18.879Z,5.60
2023-04-29T12:46:21.197Z,6.00
2023-04-29T12:49:24.846Z,5.80
2023-04-29T12:52:26.468Z,5.70
2023-04-29T12:55:28.171Z,5.40
2023-04-29T12:58:30.677Z,5.90
2023-04-29T13:01:32.351Z,5.20
2023-04-29T13:04:34.148Z,5.90
2023-04-29T13:07:37.123Z,5.40
2023-04-29T13:10:38.919Z,6.10
2023-04-29T13:13:40.617Z,6.90
2023-04-29T13:16:42.290Z,7.40
2023-04-29T13:19:50.390Z,6.00
2023-04-29T13:22:53.256Z,6.30
2023-04-29T13:25:54.945Z,5.60
2023-04-29T13:28:56.568Z,6.00
2023-04-29T13:31:58.295Z,5.90
2023-04-29T13:35:00.044Z,5.60
2023-04-29T13:38:02.343Z,6.00
2023-04-29T13:41:05.572Z,5.30
2023-04-29T13:44:21.584Z,5.40
2023-04-29T13:47:31.725Z,5.70
2023-04-29T13:51:00.898Z,5.80
2023-04-29T14:00:15.180Z,6.40
2023-04-29T14:03:21.797Z,5.70
2023-04-29T14:06:23.604Z,5.40
2023-04-29T14:09:25.208Z,5.80
2023-04-29T14:12:26.808Z,5.20
2023-04-29T14:15:28.593Z,5.90
2023-04-29T14:18:30.336Z,4.90
2023-04-29T14:21:32.261Z,5.40
2023-04-29T14:24:33.852Z,5.30
2023-04-29T14:27:35.621Z,6.10
2023-04-29T14:30:37.262Z,6.20
2023-04-29T14:33:39.579Z,6.30
2023-04-29T14:36:41.489Z,6.90
2023-04-29T14:39:43.067Z,7.10
2023-04-29T14:42:44.759Z,7.40
2023-04-29T14:45:46.378Z,7.00
2023-04-29T14:48:48.079Z,7.90
2023-04-29T14:51:49.658Z,6.20
2023-04-29T14:54:51.541Z,6.50
2023-04-29T14:57:53.391Z,6.90
2023-04-29T15:00:55.251Z,7.00
2023-04-29T15:03:57.081Z,6.60
2023-04-29T15:06:58.795Z,9.60
2023-04-29T15:10:00.418Z,7.80
2023-04-29T15:13:02.416Z,7.50
2023-04-29T15:16:04.444Z,9.40
2023-04-29T15:19:06.109Z,11.60
2023-04-29T15:22:07.750Z,12.00
2023-04-29T15:25:09.617Z,10.70
2023-04-29T15:28:11.215Z,10.20
2023-04-29T15:31:13.180Z,18.00
2023-04-29T15:34:15.039Z,14.20
2023-04-29T15:37:16.630Z,12.40
2023-04-29T15:40:18.447Z,9.80
2023-04-29T15:43:20.028Z,9.80
2023-04-29T15:46:21.733Z,16.40
2023-04-29T15:49:24.651Z,18.80
2023-04-29T15:52:26.485Z,12.30
2023-04-29T15:55:28.213Z,10.60
2023-04-29T15:58:30.032Z,11.70
2023-04-29T16:01:31.983Z,31.60
2023-04-29T16:04:34.727Z,35.30
2023-04-29T16:07:36.875Z,24.80
2023-04-29T16:10:38.656Z,20.60
2023-04-29T16:13:40.486Z,18.20
2023-04-29T16:16:42.271Z,19.40
2023-04-29T16:19:43.955Z,21.80
2023-04-29T16:22:45.556Z,19.70
2023-04-29T16:25:47.151Z,15.40
2023-04-29T16:28:48.822Z,10.70
2023-04-29T16:31:50.711Z,8.60
2023-04-29T16:34:53.016Z,8.00
2023-04-29T16:37:55.107Z,8.90
2023-04-29T16:40:56.766Z,11.80
2023-04-29T16:43:58.593Z,11.80
2023-04-29T16:47:00.356Z,10.10
2023-04-29T16:50:02.000Z,8.10
2023-04-29T16:53:04.294Z,8.50
2023-04-29T16:56:05.985Z,8.00
2023-04-29T16:59:07.770Z,9.60
2023-04-29T17:02:09.451Z,10.40
2023-04-29T17:05:11.224Z,14.00
2023-04-29T17:08:12.908Z,11.90
2023-04-29T17:11:14.592Z,12.70
2023-04-29T17:14:16.355Z,11.40
2023-04-29T17:17:18.137Z,10.90
2023-04-29T17:20:20.150Z,11.60
2023-04-29T17:23:21.903Z,13.70
2023-04-29T17:26:23.544Z,13.10
2023-04-29T17:29:25.784Z,13.40
2023-04-29T17:32:27.638Z,13.30
2023-04-29T17:35:29.287Z,13.90
2023-04-29T17:38:31.874Z,12.40
2023-04-29T17:41:33.499Z,10.60
2023-04-29T17:44:35.102Z,11.30
2023-04-29T17:47:36.723Z,11.60
2023-04-29T17:50:38.490Z,11.90
2023-04-29T17:53:40.144Z,11.40
2023-04-29T17:56:41.818Z,13.30
2023-04-29T17:59:43.473Z,14.20
2023-04-29T18:02:45.411Z,14.40
2023-04-29T18:05:47.101Z,14.00
2023-04-29T18:08:49.106Z,13.20
2023-04-29T18:11:50.717Z,14.40
2023-04-29T18:14:52.546Z,14.40
2023-04-29T18:17:54.149Z,14.40
2023-04-29T18:20:55.813Z,15.90
2023-04-29T18:23:57.577Z,17.30
2023-04-29T18:26:59.201Z,17.40
2023-04-29T18:30:01.322Z,20.00
2023-04-29T18:33:03.226Z,21.80
2023-04-29T18:36:05.162Z,22.00
2023-04-29T18:39:06.841Z,20.60
2023-04-29T18:42:08.676Z,16.80
2023-04-29T18:45:10.788Z,16.90
2023-04-29T18:48:12.523Z,15.40
2023-04-29T18:51:14.428Z,15.60
2023-04-29T18:54:17.845Z,14.50
2023-04-29T18:57:19.491Z,14.30
2023-04-29T19:00:21.097Z,15.80
2023-04-29T19:03:22.778Z,16.90
2023-04-29T19:06:24.638Z,24.60
2023-04-29T19:09:27.091Z,20.60
2023-04-29T19:12:28.995Z,22.80
2023-04-29T19:15:30.717Z,25.40
2023-04-29T19:18:32.392Z,22.50
2023-04-29T19:21:34.156Z,24.50
2023-04-29T19:24:35.857Z,26.90
2023-04-29T19:27:37.580Z,34.10
2023-04-29T19:30:39.257Z,42.30
2023-04-29T19:33:41.327Z,44.00
2023-04-29T19:36:42.924Z,38.90
2023-04-29T19:39:44.511Z,38.10
2023-04-29T19:42:46.185Z,30.60
2023-04-29T19:45:48.025Z,23.50
2023-04-29T19:48:49.686Z,19.50
2023-04-29T19:51:51.438Z,19.00
2023-04-29T19:54:53.199Z,14.40
2023-04-29T19:57:54.869Z,12.10
2023-04-29T20:00:56.635Z,13.40
2023-04-29T20:03:58.344Z,15.60
2023-04-29T20:06:59.967Z,14.70
2023-04-29T20:10:01.606Z,17.40
2023-04-29T20:13:03.232Z,18.20
2023-04-29T20:16:05.118Z,19.60
2023-04-29T20:19:06.816Z,19.20
2023-04-29T20:22:08.420Z,20.10
2023-04-29T20:25:10.238Z,19.90
2023-04-29T20:28:12.271Z,20.90
2023-04-29T20:31:14.009Z,22.00
2023-04-29T20:34:15.862Z,22.50
2023-04-29T20:37:17.553Z,18.70
2023-04-29T20:40:19.622Z,19.80
2023-04-29T20:43:21.184Z,16.20
2023-04-29T20:46:25.288Z,14.40
2023-04-29T20:49:27.695Z,14.20
2023-04-29T20:52:29.384Z,13.70
2023-04-29T20:55:31.191Z,12.00
2023-04-29T20:58:32.841Z,14.50
2023-04-29T21:01:35.562Z,14.30
2023-04-29T21:04:40.411Z,14.20
2023-04-29T21:07:42.053Z,13.50
2023-04-29T21:10:43.739Z,12.00
2023-04-29T21:13:45.453Z,11.40
2023-04-29T21:16:47.109Z,10.60
2023-04-29T21:19:48.771Z,11.60
2023-04-29T21:22:50.526Z,10.80
2023-04-29T21:25:52.259Z,11.20
2023-04-29T21:28:53.976Z,11.50
2023-04-29T21:31:55.755Z,12.00
2023-04-29T21:34:57.781Z,13.20
2023-04-29T21:37:59.436Z,15.00
2023-04-29T21:41:01.374Z,12.60
2023-04-29T21:44:04.866Z,13.10
2023-04-29T21:47:07.167Z,12.90
2023-04-29T21:50:09.769Z,11.50
2023-04-29T21:53:14.405Z,12.10
2023-04-29T21:56:18.352Z,11.30
2023-04-29T21:59:19.997Z,10.70
2023-04-29T22:02:21.766Z,10.00
2023-04-29T22:05:23.672Z,10.00
2023-04-29T22:08:25.378Z,9.60
2023-04-29T22:11:27.060Z,9.80
2023-04-29T22:14:28.872Z,10.70
2023-04-29T22:17:30.501Z,11.20
2023-04-29T22:20:32.301Z,11.40
2023-04-29T22:23:34.084Z,12.20
2023-04-29T22:26:35.796Z,12.20
2023-04-29T22:29:37.393Z,12.80
2023-04-29T22:32:39.073Z,13.70
2023-04-29T22:35:40.751Z,14.70
2023-04-29T22:38:42.535Z,18.20
2023-04-29T22:41:44.235Z,18.40
2023-04-29T22:44:45.870Z,15.40
2023-04-29T22:47:47.560Z,15.40
2023-04-29T22:50:57.794Z,13.40
2023-04-29T22:53:59.484Z,13.50
2023-04-29T22:57:01.283Z,15.60
2023-04-29T23:00:02.961Z,16.90
2023-04-29T23:03:04.565Z,17.00
2023-04-29T23:06:06.414Z,16.30
2023-04-29T23:09:08.121Z,17.00
2023-04-29T23:12:09.712Z,17.40
2023-04-29T23:15:11.465Z,17.30
2023-04-29T23:18:13.429Z,18.00
2023-04-29T23:21:15.100Z,18.60
2023-04-29T23:24:17.857Z,19.20
2023-04-29T23:27:19.508Z,19.00
2023-04-29T23:30:21.660Z,20.60
2023-04-29T23:33:23.994Z,21.70
2023-04-29T23:36:25.713Z,20.40
2023-04-29T23:39:27.291Z,20.50
2023-04-29T23:42:28.968Z,19.80
2023-04-29T23:45:30.846Z,20.80
2023-04-29T23:48:32.539Z,21.90
2023-04-29T23:51:34.136Z,23.10
2023-04-29T23:54:36.038Z,23.20
2023-04-29T23:57:37.735Z,22.80
